Time;durP1;ratioP1;P1;durP2;ratioP2;P2;SDS_P1;SDS_P2;PMS_P1;PMS_P2;Temp;Humidity;BMP_temperature;BMP_pressure;BME280_temperature;BME280_humidity;BME280_pressure;Samples;Min_cycle;Max_cycle;Signal;HPM_P1;HPM_P2
2022/02/26 00:01:03;;;;;;;20.55;4.45;;;3.10;99.90;;;;;;5098847;28;20048;-67
2022/02/26 00:03:29;;;;;;;30.77;5.68;;;3.10;99.90;;;;;;5069842;28;20044;-67
2022/02/26 00:05:55;;;;;;;31.35;4.18;;;3.10;99.90;;;;;;5071064;28;20036;-67
2022/02/26 00:08:20;;;;;;;20.30;3.67;;;3.10;99.90;;;;;;5076266;28;20047;-67
2022/02/26 00:10:46;;;;;;;17.45;3.20;;;3.10;99.90;;;;;;5074745;28;20036;-67
2022/02/26 00:13:12;;;;;;;21.77;3.53;;;3.00;99.90;;;;;;5069498;28;20122;-67
2022/02/26 00:15:38;;;;;;;26.42;4.05;;;3.00;99.90;;;;;;5070200;28;20041;-67
2022/02/26 00:18:03;;;;;;;24.88;2.78;;;3.00;99.90;;;;;;5073639;28;20046;-67
2022/02/26 00:20:29;;;;;;;26.27;4.38;;;3.00;99.90;;;;;;5068957;28;20627;-67
2022/02/26 00:22:55;;;;;;;29.30;2.75;;;3.00;99.90;;;;;;5071543;28;20040;-67
2022/02/26 00:25:20;;;;;;;27.42;3.92;;;2.90;99.90;;;;;;5068934;28;20392;-67
2022/02/26 00:27:46;;;;;;;23.40;3.08;;;2.90;99.90;;;;;;5085306;28;20037;-67
2022/02/26 00:30:12;;;;;;;27.33;2.78;;;2.90;99.90;;;;;;5068320;28;20043;-67
2022/02/26 00:32:38;;;;;;;24.20;3.67;;;2.90;99.90;;;;;;5069586;28;20036;-67
2022/02/26 00:35:04;;;;;;;30.85;4.40;;;2.90;99.90;;;;;;5068442;28;20377;-67
2022/02/26 00:37:29;;;;;;;20.83;2.95;;;2.90;99.90;;;;;;5069137;28;20043;-67
2022/02/26 00:39:55;;;;;;;32.25;3.42;;;2.80;99.90;;;;;;5070273;28;20040;-67
2022/02/26 00:42:21;;;;;;;19.60;3.30;;;2.80;99.90;;;;;;5064398;28;20048;-67
2022/02/26 00:44:46;;;;;;;22.73;2.75;;;2.80;99.90;;;;;;5068461;28;20586;-67
2022/02/26 00:47:12;;;;;;;25.55;3.85;;;2.80;99.90;;;;;;5067324;28;20040;-67
2022/02/26 00:49:50;;;;;;;22.77;3.17;;;2.70;99.90;;;;;;5068193;28;20036;-67
2022/02/26 00:52:22;;;;;;;21.60;2.35;;;2.70;99.90;;;;;;5070291;28;20033;-68
2022/02/26 00:54:48;;;;;;;21.35;2.97;;;2.70;99.90;;;;;;5066531;28;20044;-66
2022/02/26 00:57:14;;;;;;;23.98;4.03;;;2.70;99.90;;;;;;5067415;28;21027;-66
2022/02/26 00:59:40;;;;;;;31.58;3.90;;;2.70;99.90;;;;;;5069754;28;20525;-66
2022/02/26 01:02:06;;;;;;;24.15;2.70;;;2.70;99.90;;;;;;5068078;28;20040;-66
2022/02/26 01:04:32;;;;;;;28.13;3.17;;;2.80;99.90;;;;;;5070904;28;20037;-66
2022/02/26 01:06:58;;;;;;;15.82;2.80;;;2.80;99.90;;;;;;5070092;28;20040;-66
2022/02/26 01:09:24;;;;;;;24.33;3.05;;;2.70;99.90;;;;;;5072112;28;20048;-66
2022/02/26 01:11:49;;;;;;;25.27;2.88;;;2.80;99.90;;;;;;5074307;28;20044;-67
2022/02/26 01:14:15;;;;;;;22.17;3.28;;;2.60;99.90;;;;;;5069040;28;20032;-66
2022/02/26 01:16:41;;;;;;;16.83;2.42;;;2.60;99.90;;;;;;5064312;28;20635;-66
2022/02/26 01:19:06;;;;;;;23.33;2.72;;;2.60;99.90;;;;;;5068202;28;20579;-66
2022/02/26 01:21:32;;;;;;;18.83;3.30;;;2.70;99.90;;;;;;5069579;28;20040;-66
2022/02/26 01:23:58;;;;;;;17.17;2.50;;;2.70;99.90;;;;;;5071487;28;20044;-66
2022/02/26 01:26:24;;;;;;;22.17;2.75;;;2.60;99.90;;;;;;5065846;28;20155;-66
2022/02/26 01:28:50;;;;;;;26.52;2.97;;;2.60;99.90;;;;;;5070945;28;20647;-66
2022/02/26 01:31:16;;;;;;;27.92;3.45;;;2.60;99.90;;;;;;5066902;28;20123;-67
2022/02/26 01:33:41;;;;;;;24.90;3.30;;;2.60;99.90;;;;;;5065812;28;20398;-67
2022/02/26 01:36:07;;;;;;;19.52;4.15;;;2.60;99.90;;;;;;5074764;28;20044;-66
2022/02/26 01:38:34;;;;;;;22.38;3.88;;;2.60;99.90;;;;;;5069635;28;20047;-67
2022/02/26 01:41:00;;;;;;;17.05;2.60;;;2.60;99.90;;;;;;5066454;28;20128;-67
2022/02/26 01:43:26;;;;;;;20.50;2.92;;;2.60;99.90;;;;;;5066422;28;20040;-67
2022/02/26 01:45:53;;;;;;;26.25;2.97;;;2.50;99.90;;;;;;5065961;28;20115;-66
2022/02/26 01:48:19;;;;;;;23.45;3.30;;;2.50;99.90;;;;;;5068652;28;20037;-66
2022/02/26 01:50:45;;;;;;;19.10;3.28;;;2.40;99.90;;;;;;5066525;28;20368;-66
2022/02/26 01:53:11;;;;;;;19.88;3.45;;;2.50;99.90;;;;;;5066383;28;20062;-66
2022/02/26 01:55:37;;;;;;;23.67;4.40;;;2.50;99.90;;;;;;5066966;28;20040;-67
2022/02/26 01:58:04;;;;;;;21.80;3.42;;;2.40;99.90;;;;;;5069228;28;20130;-66
2022/02/26 02:00:30;;;;;;;25.85;3.30;;;2.40;99.90;;;;;;5083643;28;20044;-66
2022/02/26 02:02:59;;;;;;;14.38;2.40;;;2.40;99.90;;;;;;5063579;28;20123;-66
2022/02/26 02:05:30;;;;;;;19.88;3.22;;;2.40;99.90;;;;;;5063713;28;20052;-66
2022/02/26 02:07:57;;;;;;;15.43;2.35;;;2.40;99.90;;;;;;5095693;28;20047;-67
2022/02/26 02:10:22;;;;;;;19.30;3.15;;;2.40;99.90;;;;;;5066041;28;20036;-67
2022/02/26 02:12:48;;;;;;;17.70;3.28;;;2.30;99.90;;;;;;5065151;28;20046;-66
2022/02/26 02:15:14;;;;;;;20.65;2.45;;;2.30;99.90;;;;;;5067883;28;20044;-66
2022/02/26 02:17:43;;;;;;;23.83;4.93;;;2.30;99.90;;;;;;5070072;28;20049;-67
2022/02/26 02:20:09;;;;;;;20.50;3.90;;;2.20;99.90;;;;;;5068250;28;20043;-66
2022/02/26 02:22:35;;;;;;;26.63;3.50;;;2.30;99.90;;;;;;5067790;28;20056;-66
2022/02/26 02:25:03;;;;;;;20.27;4.03;;;2.20;99.90;;;;;;5067365;28;20036;-66
2022/02/26 02:27:29;;;;;;;25.40;3.53;;;2.20;99.90;;;;;;5096861;28;20048;-66
2022/02/26 02:29:55;;;;;;;19.23;2.90;;;2.20;99.90;;;;;;5067456;28;20036;-66
2022/02/26 02:32:21;;;;;;;14.77;3.00;;;2.20;99.90;;;;;;5068479;28;20048;-66
2022/02/26 02:34:47;;;;;;;13.13;2.97;;;2.20;99.90;;;;;;5065591;28;20154;-66
2022/02/26 02:37:13;;;;;;;21.58;2.80;;;2.00;99.90;;;;;;5066933;28;20119;-66
2022/02/26 02:39:42;;;;;;;18.90;3.10;;;2.10;99.90;;;;;;5065814;28;20045;-66
2022/02/26 02:42:07;;;;;;;18.17;2.50;;;2.00;99.90;;;;;;5064758;28;20068;-66
2022/02/26 02:44:33;;;;;;;21.95;2.45;;;2.00;99.90;;;;;;5064396;28;20510;-66
2022/02/26 02:46:59;;;;;;;14.77;2.50;;;1.90;99.90;;;;;;5069499;28;20127;-66
2022/02/26 02:49:25;;;;;;;25.88;2.50;;;1.90;99.90;;;;;;5064333;28;20102;-66
2022/02/26 02:51:50;;;;;;;19.40;2.85;;;1.80;99.90;;;;;;5068163;28;20072;-66
2022/02/26 02:54:16;;;;;;;24.05;3.13;;;1.90;99.90;;;;;;5074060;28;20167;-67
2022/02/26 02:56:42;;;;;;;17.02;2.92;;;1.90;99.90;;;;;;5067014;28;20037;-66
2022/02/26 02:59:08;;;;;;;18.85;3.08;;;1.80;99.90;;;;;;5069346;28;20127;-66
2022/02/26 03:01:34;;;;;;;12.43;2.47;;;1.80;99.90;;;;;;5065072;28;20421;-66
2022/02/26 03:03:59;;;;;;;16.75;2.08;;;1.80;99.90;;;;;;5064885;28;20044;-66
2022/02/26 03:06:25;;;;;;;20.10;2.80;;;1.70;99.90;;;;;;5067380;28;20036;-67
2022/02/26 03:08:51;;;;;;;18.25;3.13;;;1.70;99.90;;;;;;5068208;28;20086;-66
2022/02/26 03:11:19;;;;;;;16.08;3.40;;;1.60;99.90;;;;;;5099446;28;20040;-66
2022/02/26 03:13:45;;;;;;;27.63;2.90;;;1.70;99.90;;;;;;5073306;28;20048;-66
2022/02/26 03:16:11;;;;;;;18.05;2.28;;;1.80;99.90;;;;;;5070580;28;20115;-66
2022/02/26 03:18:37;;;;;;;16.23;2.25;;;1.60;99.90;;;;;;5073430;28;20076;-66
2022/02/26 03:21:03;;;;;;;16.38;2.00;;;1.60;99.90;;;;;;5070723;28;20072;-66
2022/02/26 03:23:29;;;;;;;13.55;1.58;;;1.50;99.90;;;;;;5068641;28;20047;-67
2022/02/26 03:25:54;;;;;;;18.35;2.55;;;1.40;99.90;;;;;;5069447;28;20052;-66
2022/02/26 03:28:20;;;;;;;18.05;2.90;;;1.40;99.90;;;;;;5050845;28;20044;-66
2022/02/26 03:30:45;;;;;;;17.73;2.13;;;1.40;99.90;;;;;;5070508;28;20568;-66
2022/02/26 03:33:11;;;;;;;16.77;2.15;;;1.30;99.90;;;;;;5069881;28;20112;-66
2022/02/26 03:35:39;;;;;;;18.08;2.63;;;1.30;99.90;;;;;;5070437;28;20048;-66
2022/02/26 03:38:05;;;;;;;15.70;2.28;;;1.60;99.90;;;;;;5072711;28;20131;-66
2022/02/26 03:40:30;;;;;;;14.70;2.25;;;1.20;99.90;;;;;;5071073;28;20128;-66
2022/02/26 03:42:56;;;;;;;14.02;1.65;;;1.20;99.90;;;;;;5070116;28;20033;-66
2022/02/26 03:45:22;;;;;;;15.95;3.75;;;1.20;99.90;;;;;;5069756;28;20044;-67
2022/02/26 03:47:49;;;;;;;15.23;3.15;;;1.10;99.90;;;;;;5070336;28;20073;-66
2022/02/26 03:50:14;;;;;;;19.83;1.90;;;1.10;99.90;;;;;;5071669;28;20126;-66
2022/02/26 03:52:40;;;;;;;12.48;2.00;;;1.10;99.90;;;;;;5070630;28;20535;-66
2022/02/26 03:55:07;;;;;;;20.08;2.30;;;1.10;99.90;;;;;;5088248;28;20052;-66
2022/02/26 03:57:33;;;;;;;21.67;2.65;;;1.10;99.90;;;;;;5070723;28;20135;-66
2022/02/26 03:59:59;;;;;;;30.85;2.67;;;1.10;99.90;;;;;;5070373;28;20066;-66
2022/02/26 04:02:25;;;;;;;20.40;2.67;;;1.10;99.90;;;;;;5070613;28;20085;-66
2022/02/26 04:04:51;;;;;;;18.00;2.80;;;1.10;99.90;;;;;;5070174;28;20043;-66
2022/02/26 04:07:16;;;;;;;16.75;2.85;;;1.10;99.90;;;;;;5069849;28;20029;-66
2022/02/26 04:09:42;;;;;;;14.88;2.22;;;1.10;99.90;;;;;;5071714;28;20046;-66
2022/02/26 04:12:08;;;;;;;16.45;2.88;;;1.10;99.90;;;;;;5069188;28;20028;-66
2022/02/26 04:14:34;;;;;;;14.82;2.08;;;1.00;99.90;;;;;;5077017;28;20059;-66
2022/02/26 04:17:00;;;;;;;20.73;2.80;;;1.00;99.90;;;;;;5072968;28;20041;-66
2022/02/26 04:19:26;;;;;;;12.00;1.30;;;0.90;99.90;;;;;;5070987;28;20071;-66
2022/02/26 04:21:54;;;;;;;18.05;2.15;;;1.20;99.90;;;;;;5069121;28;20037;-66
2022/02/26 04:24:20;;;;;;;15.60;2.35;;;0.90;99.90;;;;;;5071814;28;20037;-66
2022/02/26 04:26:46;;;;;;;13.70;1.50;;;0.90;99.90;;;;;;5071008;28;20090;-66
2022/02/26 04:29:12;;;;;;;13.95;2.08;;;0.90;99.90;;;;;;5069742;28;20036;-67
2022/02/26 04:31:38;;;;;;;16.35;2.30;;;1.20;99.90;;;;;;5069579;28;20548;-66
2022/02/26 04:34:04;;;;;;;16.75;2.92;;;0.90;99.90;;;;;;5069251;28;20033;-66
2022/02/26 04:36:31;;;;;;;24.40;3.47;;;0.90;99.90;;;;;;5088936;28;20044;-66
2022/02/26 04:38:56;;;;;;;22.27;2.63;;;0.90;99.90;;;;;;5078844;28;20048;-66
2022/02/26 04:41:22;;;;;;;16.80;2.30;;;0.80;99.90;;;;;;5072477;28;20041;-66
2022/02/26 04:43:48;;;;;;;23.30;3.10;;;0.90;99.90;;;;;;5069933;28;20044;-66
2022/02/26 04:46:14;;;;;;;24.15;2.85;;;0.90;99.90;;;;;;5067764;28;20106;-67
2022/02/26 04:48:40;;;;;;;20.45;2.65;;;1.00;99.90;;;;;;5066923;28;20041;-67
2022/02/26 04:51:08;;;;;;;17.85;1.88;;;1.00;99.90;;;;;;5050888;28;20115;-67
2022/02/26 04:53:37;;;;;;;15.32;2.63;;;0.90;99.90;;;;;;5069751;28;20514;-67
2022/02/26 04:56:04;;;;;;;15.43;1.95;;;0.90;99.90;;;;;;5071159;28;20029;-67
2022/02/26 04:58:31;;;;;;;20.95;2.13;;;1.00;99.90;;;;;;5074046;28;20036;-67
2022/02/26 05:00:58;;;;;;;14.40;1.75;;;1.00;99.90;;;;;;5071083;28;20056;-67
2022/02/26 05:03:24;;;;;;;12.73;1.88;;;0.90;99.90;;;;;;5066484;28;20503;-67
2022/02/26 05:05:49;;;;;;;18.63;2.40;;;1.00;99.90;;;;;;5098025;28;20041;-67
2022/02/26 05:08:15;;;;;;;16.42;2.17;;;1.00;99.90;;;;;;5068536;28;20037;-67
2022/02/26 05:10:40;;;;;;;15.30;2.42;;;0.90;99.90;;;;;;5070966;28;20040;-67
2022/02/26 05:13:06;;;;;;;18.52;2.92;;;0.90;99.90;;;;;;5065510;28;20032;-67
2022/02/26 05:15:32;;;;;;;11.02;2.13;;;0.90;99.90;;;;;;5100213;28;20052;-67
2022/02/26 05:17:57;;;;;;;19.33;2.17;;;1.00;99.90;;;;;;5066921;28;20043;-67
2022/02/26 05:20:23;;;;;;;14.63;1.70;;;0.90;99.90;;;;;;5069522;28;20041;-67
2022/02/26 05:22:48;;;;;;;12.88;1.50;;;1.20;99.90;;;;;;5070775;28;20047;-67
2022/02/26 05:25:14;;;;;;;16.30;2.28;;;0.90;99.90;;;;;;5067748;28;20044;-67
2022/02/26 05:27:40;;;;;;;17.25;1.92;;;0.90;99.90;;;;;;5097761;28;20550;-67
2022/02/26 05:30:07;;;;;;;15.90;1.95;;;0.80;99.90;;;;;;5067460;28;20044;-67
2022/02/26 05:32:33;;;;;;;10.18;1.48;;;0.80;99.90;;;;;;5047729;28;20048;-67
2022/02/26 05:34:58;;;;;;;16.70;3.38;;;0.90;99.90;;;;;;5070749;28;20035;-67
2022/02/26 05:37:24;;;;;;;17.17;3.42;;;0.80;99.90;;;;;;5086056;28;20556;-66
2022/02/26 05:39:50;;;;;;;18.95;3.03;;;0.80;99.90;;;;;;5070758;28;20036;-66
2022/02/26 05:42:16;;;;;;;16.85;2.30;;;0.90;99.90;;;;;;5072527;28;20035;-66
2022/02/26 05:44:42;;;;;;;11.20;1.90;;;0.80;99.90;;;;;;5068991;28;20041;-66
2022/02/26 05:47:08;;;;;;;14.88;2.85;;;0.90;99.90;;;;;;5067816;28;20032;-66
2022/02/26 05:49:34;;;;;;;12.52;1.90;;;0.80;99.90;;;;;;5067390;28;20120;-66
2022/02/26 05:51:59;;;;;;;18.45;1.67;;;0.80;99.90;;;;;;5066904;28;20119;-66
2022/02/26 05:54:25;;;;;;;11.95;1.63;;;0.90;99.90;;;;;;5066398;28;20460;-66
2022/02/26 05:56:51;;;;;;;10.95;2.33;;;0.80;99.90;;;;;;5097071;28;20098;-66
2022/02/26 05:59:17;;;;;;;14.07;1.83;;;0.80;99.90;;;;;;5069636;28;20043;-66
2022/02/26 06:01:42;;;;;;;17.98;2.00;;;0.90;99.90;;;;;;5068860;28;20445;-66
2022/02/26 06:04:08;;;;;;;15.30;1.67;;;0.80;99.90;;;;;;5067682;28;20048;-66
2022/02/26 06:06:34;;;;;;;12.18;1.92;;;0.80;99.90;;;;;;5068253;28;20040;-66
2022/02/26 06:08:59;;;;;;;10.32;1.60;;;1.00;99.90;;;;;;5067164;28;20040;-66
2022/02/26 06:11:25;;;;;;;12.70;1.73;;;0.70;99.90;;;;;;5069036;28;20085;-66
2022/02/26 06:13:52;;;;;;;16.63;2.50;;;0.70;99.90;;;;;;5069169;28;20383;-66
2022/02/26 06:16:18;;;;;;;14.48;1.52;;;0.70;99.90;;;;;;5065432;28;20059;-66
2022/02/26 06:18:44;;;;;;;12.20;1.88;;;0.70;99.90;;;;;;5069814;28;20435;-66
2022/02/26 06:21:09;;;;;;;14.73;1.98;;;0.70;99.90;;;;;;5068341;28;20103;-66
2022/02/26 06:23:35;;;;;;;15.15;2.17;;;0.70;99.90;;;;;;5068162;28;20298;-66
2022/02/26 06:26:01;;;;;;;15.35;2.10;;;0.70;99.90;;;;;;5065810;28;20037;-67
2022/02/26 06:28:26;;;;;;;16.48;2.55;;;0.60;99.90;;;;;;5064589;28;20419;-66
2022/02/26 06:30:52;;;;;;;21.08;3.05;;;0.60;99.90;;;;;;5065898;28;20044;-67
2022/02/26 06:33:18;;;;;;;16.90;2.83;;;0.60;99.90;;;;;;5065870;28;20056;-67
2022/02/26 06:35:44;;;;;;;19.05;1.90;;;0.60;99.90;;;;;;5068235;28;20122;-67
2022/02/26 06:38:10;;;;;;;13.65;1.60;;;0.60;99.90;;;;;;5069394;28;20040;-67
2022/02/26 06:40:37;;;;;;;16.45;2.22;;;0.70;99.90;;;;;;5066076;28;20036;-67
2022/02/26 06:43:04;;;;;;;17.50;2.50;;;0.60;99.90;;;;;;5069074;28;20915;-67
2022/02/26 06:45:30;;;;;;;15.70;2.22;;;0.60;99.90;;;;;;5068385;28;20479;-67
2022/02/26 06:47:56;;;;;;;16.60;1.80;;;0.60;99.90;;;;;;5071355;28;20046;-67
2022/02/26 06:50:22;;;;;;;15.07;2.75;;;0.60;99.90;;;;;;5066918;28;20122;-67
2022/02/26 06:52:48;;;;;;;12.30;2.25;;;0.70;99.90;;;;;;5064799;28;20132;-67
2022/02/26 06:55:14;;;;;;;15.50;2.17;;;0.80;99.90;;;;;;5071747;28;20741;-67
2022/02/26 06:57:40;;;;;;;20.55;2.00;;;0.80;99.90;;;;;;5102834;28;20044;-67
2022/02/26 07:00:06;;;;;;;14.43;1.80;;;0.80;99.90;;;;;;5101359;28;20535;-67
2022/02/26 07:02:33;;;;;;;14.45;1.70;;;0.90;99.90;;;;;;5088801;28;20481;-67
2022/02/26 07:04:58;;;;;;;14.55;2.42;;;1.00;99.90;;;;;;5084211;28;20059;-67
2022/02/26 07:07:24;;;;;;;10.85;1.20;;;1.30;99.90;;;;;;5068694;28;20048;-67
2022/02/26 07:09:50;;;;;;;7.70;1.38;;;1.10;99.90;;;;;;5070112;28;20701;-67
2022/02/26 07:12:19;;;;;;;10.30;0.98;;;1.20;99.90;;;;;;5070535;28;20463;-67
2022/02/26 07:14:45;;;;;;;6.93;1.08;;;1.30;99.90;;;;;;5073721;28;20973;-66
2022/02/26 07:17:11;;;;;;;5.05;1.13;;;1.40;99.90;;;;;;5071098;28;20037;-66
2022/02/26 07:19:37;;;;;;;11.63;1.70;;;1.40;99.90;;;;;;5068959;28;20044;-67
2022/02/26 07:22:03;;;;;;;10.65;1.33;;;1.50;99.90;;;;;;5069560;28;20040;-67
2022/02/26 07:24:29;;;;;;;13.32;1.42;;;1.60;99.90;;;;;;5068692;28;20048;-67
2022/02/26 07:26:55;;;;;;;16.85;2.25;;;1.60;99.90;;;;;;5068376;28;20514;-67
2022/02/26 07:29:21;;;;;;;11.40;1.40;;;1.70;99.90;;;;;;5069655;28;20054;-67
2022/02/26 07:31:47;;;;;;;13.75;2.05;;;1.70;99.90;;;;;;5069899;28;20040;-67
2022/02/26 07:34:14;;;;;;;16.42;2.25;;;1.70;99.90;;;;;;5067273;28;20036;-67
2022/02/26 07:36:39;;;;;;;13.25;1.60;;;1.80;99.90;;;;;;5068604;28;20414;-67
2022/02/26 07:39:05;;;;;;;18.38;2.78;;;1.80;99.90;;;;;;5068326;28;20043;-67
2022/02/26 07:41:32;;;;;;;13.38;3.13;;;1.80;99.90;;;;;;5070622;28;20036;-67
2022/02/26 07:43:58;;;;;;;19.73;2.20;;;1.90;99.90;;;;;;5067382;28;20119;-66
2022/02/26 07:46:24;;;;;;;22.77;3.00;;;1.90;99.90;;;;;;5062054;28;20143;-68
2022/02/26 07:48:49;;;;;;;20.73;2.53;;;2.00;99.90;;;;;;5068910;28;20036;-67
2022/02/26 07:51:15;;;;;;;12.32;1.95;;;2.00;99.90;;;;;;5067967;28;20045;-66
2022/02/26 07:53:42;;;;;;;21.48;2.63;;;2.10;99.90;;;;;;5065147;28;20041;-67
2022/02/26 07:56:09;;;;;;;19.48;2.22;;;2.10;99.90;;;;;;5069591;28;20029;-67
2022/02/26 07:58:34;;;;;;;18.88;2.00;;;2.20;99.90;;;;;;5065718;28;20128;-66
2022/02/26 08:01:00;;;;;;;21.52;3.10;;;2.20;99.90;;;;;;5068238;28;20123;-67
2022/02/26 08:03:26;;;;;;;12.10;2.10;;;2.30;99.90;;;;;;5065956;28;20040;-67
2022/02/26 08:05:51;;;;;;;16.08;2.28;;;2.40;99.90;;;;;;5066165;28;20068;-67
2022/02/26 08:08:17;;;;;;;20.75;2.83;;;2.50;99.90;;;;;;5070592;28;20051;-67
2022/02/26 08:10:43;;;;;;;20.90;3.20;;;2.50;99.90;;;;;;5067726;28;20047;-67
2022/02/26 08:13:09;;;;;;;20.92;2.22;;;2.50;99.90;;;;;;5069989;28;20031;-67
2022/02/26 08:15:34;;;;;;;30.42;3.50;;;2.60;99.90;;;;;;5066963;28;20410;-67
2022/02/26 08:18:00;;;;;;;40.17;3.05;;;2.60;99.90;;;;;;5070847;28;20048;-67
2022/02/26 08:20:26;;;;;;;31.40;3.35;;;2.70;99.90;;;;;;5071382;28;20044;-66
2022/02/26 08:22:54;;;;;;;46.25;2.72;;;2.60;99.90;;;;;;5070975;28;20044;-66
2022/02/26 08:25:20;;;;;;;45.38;2.22;;;2.60;99.90;;;;;;5059152;28;20047;-67
2022/02/26 08:27:46;;;;;;;46.38;2.20;;;2.60;99.90;;;;;;5069154;28;20120;-67
2022/02/26 08:30:15;;;;;;;42.55;2.13;;;2.40;99.90;;;;;;5068740;28;20132;-67
2022/02/26 08:32:41;;;;;;;17.85;1.40;;;2.50;99.90;;;;;;5069228;28;20028;-67
2022/02/26 08:35:08;;;;;;;19.40;1.30;;;2.50;99.90;;;;;;5069666;28;20119;-67
2022/02/26 08:37:36;;;;;;;11.40;1.20;;;2.60;99.90;;;;;;5069209;28;20132;-67
2022/02/26 08:40:03;;;;;;;22.02;1.73;;;2.50;99.90;;;;;;5067838;28;20045;-67
2022/02/26 08:42:29;;;;;;;30.90;2.00;;;2.60;99.90;;;;;;5067642;28;20059;-67
2022/02/26 08:44:54;;;;;;;14.55;2.10;;;2.60;99.90;;;;;;5068580;28;20049;-67
2022/02/26 08:47:21;;;;;;;25.30;1.88;;;2.70;99.90;;;;;;5068775;28;20674;-67
2022/02/26 08:49:46;;;;;;;44.05;2.20;;;2.80;99.90;;;;;;5069287;28;20518;-66
2022/02/26 08:52:12;;;;;;;4.55;1.75;;;2.80;99.90;;;;;;5086193;28;20072;-67
2022/02/26 08:54:38;;;;;;;8.95;2.10;;;2.90;99.90;;;;;;5069844;28;20041;-68
2022/02/26 08:57:04;;;;;;;5.82;2.40;;;3.00;99.90;;;;;;5063270;28;20133;-67
2022/02/26 08:59:30;;;;;;;9.18;2.60;;;3.20;99.90;;;;;;5069726;28;20576;-67
2022/02/26 09:01:57;;;;;;;10.32;2.60;;;3.20;99.90;;;;;;5066512;28;20028;-67
2022/02/26 09:04:23;;;;;;;12.05;2.08;;;3.40;99.90;;;;;;5066572;28;20407;-67
2022/02/26 09:06:49;;;;;;;4.65;2.10;;;3.40;99.90;;;;;;5067177;28;20040;-66
2022/02/26 09:09:15;;;;;;;8.27;2.00;;;3.50;99.90;;;;;;5066527;28;20033;-66
2022/02/26 09:11:41;;;;;;;6.78;1.58;;;3.60;99.90;;;;;;5082249;28;20062;-66
2022/02/26 09:14:08;;;;;;;5.95;1.92;;;3.70;99.90;;;;;;5064144;28;20981;-66
2022/02/26 09:16:34;;;;;;;6.75;2.20;;;3.80;99.90;;;;;;5064490;28;20135;-67
2022/02/26 09:18:59;;;;;;;4.93;2.30;;;4.00;99.90;;;;;;5065994;28;20051;-66
2022/02/26 09:21:25;;;;;;;9.82;2.92;;;4.10;99.90;;;;;;5064409;28;20144;-67
2022/02/26 09:23:51;;;;;;;5.45;2.80;;;4.10;99.90;;;;;;5064721;28;20076;-66
2022/02/26 09:26:17;;;;;;;7.30;2.80;;;4.10;99.90;;;;;;5068463;28;20038;-66
2022/02/26 09:28:42;;;;;;;8.77;3.08;;;4.20;99.90;;;;;;5065002;28;20471;-66
2022/02/26 09:31:10;;;;;;;11.25;2.95;;;4.30;99.90;;;;;;5064879;28;20151;-68
2022/02/26 09:33:36;;;;;;;12.90;3.53;;;4.30;99.90;;;;;;5065708;28;20029;-68
2022/02/26 09:36:04;;;;;;;12.15;3.58;;;4.40;99.90;;;;;;5065524;28;20074;-67
2022/02/26 09:38:30;;;;;;;13.05;4.07;;;4.60;99.90;;;;;;5068375;28;20071;-70
2022/02/26 09:40:57;;;;;;;13.52;3.83;;;4.70;99.90;;;;;;5068022;28;20068;-72
2022/02/26 09:43:24;;;;;;;8.38;3.70;;;4.90;99.90;;;;;;5061569;28;20055;-70
2022/02/26 09:45:51;;;;;;;15.55;4.07;;;5.10;99.90;;;;;;5063552;28;20037;-70
2022/02/26 09:48:17;;;;;;;16.00;3.95;;;5.20;99.90;;;;;;5064816;28;20040;-69
2022/02/26 09:50:44;;;;;;;16.92;3.30;;;5.30;99.90;;;;;;5067698;28;20139;-69
2022/02/26 09:53:11;;;;;;;14.02;4.00;;;5.40;99.90;;;;;;5064979;28;20048;-69
2022/02/26 09:55:37;;;;;;;23.27;4.40;;;5.60;99.90;;;;;;5097974;28;20044;-70
2022/02/26 09:58:03;;;;;;;28.02;5.38;;;5.70;99.90;;;;;;5068469;28;20400;-69
2022/02/26 10:00:29;;;;;;;18.98;3.72;;;5.90;99.90;;;;;;5065074;28;20040;-66
2022/02/26 10:02:55;;;;;;;17.88;4.22;;;6.10;99.90;;;;;;5069628;28;20068;-66
2022/02/26 10:05:21;;;;;;;15.15;3.90;;;6.30;99.90;;;;;;5071546;28;20093;-67
2022/02/26 10:07:49;;;;;;;28.60;5.43;;;6.40;99.90;;;;;;5066953;28;20123;-67
2022/02/26 10:10:19;;;;;;;19.33;4.55;;;6.40;99.90;;;;;;5064181;28;20055;-67
2022/02/26 10:12:50;;;;;;;14.48;3.70;;;6.60;99.90;;;;;;5066223;28;20043;-67
2022/02/26 10:15:24;;;;;;;20.77;3.78;;;6.70;99.90;;;;;;5062794;28;20051;-67
2022/02/26 10:18:01;;;;;;;17.65;3.38;;;6.80;99.90;;;;;;5063180;28;20048;-68
2022/02/26 10:20:27;;;;;;;32.95;4.20;;;6.80;99.90;;;;;;5062073;28;20115;-68
2022/02/26 10:22:54;;;;;;;16.25;3.97;;;7.00;99.90;;;;;;5067605;28;20035;-67
2022/02/26 10:25:30;;;;;;;17.48;3.45;;;7.00;99.90;;;;;;5065848;28;20177;-68
2022/02/26 10:28:00;;;;;;;;;;;7.10;99.90;;;;;;5064307;28;20052;-67
2022/02/26 10:30:33;;;;;;;19.17;3.10;;;7.10;99.90;;;;;;5065609;28;19980;-67
2022/02/26 10:33:26;;;;;;;16.13;2.92;;;7.30;99.90;;;;;;5083625;28;20048;-67
2022/02/26 10:35:55;;;;;;;17.48;4.03;;;7.30;99.90;;;;;;5066922;28;20052;-68
2022/02/26 10:38:29;;;;;;;22.48;3.47;;;7.50;99.90;;;;;;5064145;28;20047;-68
2022/02/26 10:41:07;;;;;;;14.25;3.38;;;7.70;99.90;;;;;;5065157;28;20028;-68
2022/02/26 10:43:39;;;;;;;13.30;2.83;;;7.70;99.90;;;;;;5064237;28;20040;-67
2022/02/26 10:46:24;;;;;;;21.38;3.95;;;7.80;99.90;;;;;;5092975;28;20143;-67
2022/02/26 10:49:05;;;;;;;19.90;3.53;;;7.90;99.90;;;;;;5067257;28;20446;-68
2022/02/26 10:51:38;;;;;;;16.38;2.20;;;8.00;99.90;;;;;;5067067;28;20029;-67
2022/02/26 10:54:07;;;;;;;15.30;2.03;;;8.10;99.90;;;;;;5069023;28;20059;-67
2022/02/26 10:56:44;;;;;;;11.35;1.70;;;8.10;99.90;;;;;;5067883;28;20048;-67
2022/02/26 10:59:12;;;;;;;17.17;2.88;;;8.20;99.90;;;;;;5064066;28;20084;-67
2022/02/26 11:01:39;;;;;;;15.73;2.67;;;8.20;99.90;;;;;;5065219;28;20582;-67
2022/02/26 11:04:05;;;;;;;16.33;2.40;;;8.40;99.90;;;;;;5050535;28;20741;-68
2022/02/26 11:06:32;;;;;;;13.38;2.47;;;8.60;99.90;;;;;;5065713;28;20036;-68
2022/02/26 11:08:58;;;;;;;18.02;2.88;;;8.80;99.90;;;;;;5066512;28;20520;-72
2022/02/26 11:11:24;;;;;;;12.30;1.90;;;8.90;99.90;;;;;;5056892;28;20055;-72
2022/02/26 11:13:52;;;;;;;20.38;3.38;;;9.00;99.90;;;;;;5065528;28;20044;-71
2022/02/26 11:16:20;;;;;;;17.98;2.85;;;9.20;99.90;;;;;;5067564;28;20049;-71
2022/02/26 11:18:48;;;;;;;14.57;2.85;;;9.20;99.90;;;;;;5064486;28;20060;-71
2022/02/26 11:21:19;;;;;;;12.43;1.85;;;9.30;99.90;;;;;;5066905;28;20085;-71
2022/02/26 11:23:47;;;;;;;14.95;2.53;;;9.40;99.90;;;;;;5066012;28;20055;-71
2022/02/26 11:26:14;;;;;;;17.50;2.90;;;9.40;99.90;;;;;;5063740;28;20040;-71
2022/02/26 11:28:49;;;;;;;16.33;2.30;;;9.40;99.90;;;;;;5064656;28;20036;-71
2022/02/26 11:31:33;;;;;;;15.18;2.65;;;9.40;99.90;;;;;;5064290;28;20052;-71
2022/02/26 11:33:59;;;;;;;16.40;2.42;;;9.40;99.90;;;;;;5068704;28;20044;-71
2022/02/26 11:36:49;;;;;;;16.42;2.65;;;9.50;99.90;;;;;;5067586;28;20136;-71
2022/02/26 11:39:26;;;;;;;15.15;2.28;;;9.60;99.90;;;;;;5067678;28;20534;-71
2022/02/26 11:42:24;;;;;;;13.85;3.35;;;9.80;99.90;;;;;;5070441;28;20502;-71
2022/02/26 11:44:54;;;;;;;25.92;4.28;;;9.80;99.90;;;;;;5065509;28;20048;-71
2022/02/26 11:47:23;;;;;;;15.95;2.42;;;9.90;99.90;;;;;;5064424;28;20036;-71
2022/02/26 11:50:06;;;;;;;13.63;2.60;;;10.10;99.90;;;;;;5066122;28;20059;-71
2022/02/26 11:52:37;;;;;;;12.27;1.55;;;10.10;98.80;;;;;;5069794;28;20052;-71
2022/02/26 11:55:25;;;;;;;12.45;2.17;;;10.20;97.80;;;;;;5069379;28;20063;-71
2022/02/26 11:57:53;;;;;;;14.57;2.08;;;10.20;98.80;;;;;;5098505;28;20430;-71
2022/02/26 12:00:23;;;;;;;16.02;3.00;;;10.30;97.60;;;;;;5069671;28;20087;-71
2022/02/26 12:03:15;;;;;;;12.20;2.60;;;10.30;97.20;;;;;;5049694;28;20055;-71
2022/02/26 12:05:40;;;;;;;16.92;2.30;;;10.40;97.00;;;;;;5061837;28;20051;-70
2022/02/26 12:08:10;;;;;;;12.15;2.75;;;10.40;96.60;;;;;;5072576;28;20415;-71
2022/02/26 12:10:36;;;;;;;12.57;2.10;;;10.40;97.70;;;;;;5087238;28;20033;-71
2022/02/26 12:13:02;;;;;;;13.18;2.33;;;10.30;97.20;;;;;;5067827;28;20102;-71
2022/02/26 12:15:29;;;;;;;13.40;2.10;;;9.80;96.40;;;;;;5066633;28;20059;-71
2022/02/26 12:17:55;;;;;;;14.98;2.03;;;9.90;97.90;;;;;;5066059;28;20114;-71
2022/02/26 12:20:30;;;;;;;11.05;1.70;;;9.90;98.20;;;;;;5067148;28;20036;-71
2022/02/26 12:23:08;;;;;;;17.40;2.33;;;10.00;97.10;;;;;;5068806;28;20041;-71
2022/02/26 12:25:39;;;;;;;12.10;2.90;;;10.10;94.90;;;;;;5067836;28;20059;-71
2022/02/26 12:28:11;;;;;;;13.63;2.13;;;10.20;95.30;;;;;;5069951;28;20452;-71
2022/02/26 12:30:52;;;;;;;15.13;1.98;;;10.20;94.60;;;;;;5070984;28;20506;-71
2022/02/26 12:33:19;;;;;;;18.75;2.20;;;10.40;94.50;;;;;;5069593;28;20119;-71
2022/02/26 12:35:45;;;;;;;12.75;2.67;;;10.50;94.40;;;;;;5066946;28;20044;-71
2022/02/26 12:38:28;;;;;;;12.20;2.30;;;10.40;92.40;;;;;;5068857;28;20075;-71
2022/02/26 12:40:56;;;;;;;14.52;2.72;;;10.40;92.60;;;;;;5096576;27;20048;-71
2022/02/26 12:43:29;;;;;;;12.65;3.08;;;10.40;93.50;;;;;;5096257;27;20036;-71
2022/02/26 12:45:56;;;;;;;14.30;2.60;;;10.20;93.50;;;;;;5066279;28;20036;-71
2022/02/26 12:48:23;;;;;;;13.50;3.15;;;10.40;93.40;;;;;;5064973;28;20036;-71